Terminal Aerodrome Forecast
Issued by NWS

Home | Current Version | Previous Version | Text Only | Print | Product List | Glossary On
Versions: 1 2 3 4 5 6 7 8 9 10 11 12 13 14
000
FTUS44 KTSA 260500
TAFRVS
TAF
KRVS 260539Z 2606/2706 18008KT P6SM BKN200
     FM261400 18010KT P6SM BKN025
     FM262000 17010KT 6SM -RA BKN015
     FM270300 20005KT 6SM -RA OVC008=

USA.gov is the U.S. government's official web portal to all federal, state and local government web resources and services.